Terminal Aerodrome Forecast
Issued by NWS

Home | Current Version | Previous Version | Text Only | Print | Product List | Glossary On
Versions: 1 2 3 4 5 6 7 8 9 10 11 12 13 14 15 16 17 18 19 20 21 22 23 24 25
344
FTUS41 KGYX 230831 AAA
TAFRKD
TAF AMD
KRKD 230831Z 2309/2406 05010G20KT P6SM OVC030
     FM240000 03010G20KT P6SM OVC020=

USA.gov is the U.S. government's official web portal to all federal, state and local government web resources and services.